sensor_id;sensor_type;location;lat;lon;timestamp;pressure;altitude;pressure_sealevel;temperature;humidity
12868;BME280;33517;49.866;8.320;2023-02-16T00:00:15;101614.81;;;3.79;95.79
12868;BME280;33517;49.866;8.320;2023-02-16T00:03:15;101621.28;;;3.71;95.99
12868;BME280;33517;49.866;8.320;2023-02-16T00:06:07;101613.97;;;3.78;97.02
12868;BME280;33517;49.866;8.320;2023-02-16T00:09:03;101609.59;;;3.79;96.27
12868;BME280;33517;49.866;8.320;2023-02-16T00:11:56;101615.72;;;3.78;96.41
12868;BME280;33517;49.866;8.320;2023-02-16T00:15:15;101617.47;;;3.77;96.44
12868;BME280;33517;49.866;8.320;2023-02-16T00:18:14;101633.31;;;3.74;95.88
12868;BME280;33517;49.866;8.320;2023-02-16T00:21:06;101631.91;;;3.68;95.48
12868;BME280;33517;49.866;8.320;2023-02-16T00:23:58;101633.75;;;3.66;95.56
12868;BME280;33517;49.866;8.320;2023-02-16T00:26:50;101630.22;;;3.67;95.73
12868;BME280;33517;49.866;8.320;2023-02-16T00:29:42;101623.25;;;3.68;95.70
12868;BME280;33517;49.866;8.320;2023-02-16T00:32:35;101622.41;;;3.67;95.88
12868;BME280;33517;49.866;8.320;2023-02-16T00:35:27;101617.94;;;3.69;95.96
12868;BME280;33517;49.866;8.320;2023-02-16T00:38:19;101622.25;;;3.70;95.90
12868;BME280;33517;49.866;8.320;2023-02-16T00:41:16;101600.13;;;3.63;96.08
12868;BME280;33517;49.866;8.320;2023-02-16T00:44:28;101586.44;;;3.60;96.35
12868;BME280;33517;49.866;8.320;2023-02-16T00:47:26;101599.44;;;3.60;96.71
12868;BME280;33517;49.866;8.320;2023-02-16T00:50:22;101596.38;;;3.53;96.69
12868;BME280;33517;49.866;8.320;2023-02-16T00:53:15;101606.84;;;3.38;97.42
12868;BME280;33517;49.866;8.320;2023-02-16T00:56:08;101627.13;;;3.47;97.33
12868;BME280;33517;49.866;8.320;2023-02-16T00:59:05;101624.16;;;3.53;96.89
12868;BME280;33517;49.866;8.320;2023-02-16T01:01:58;101617.09;;;3.55;96.29
12868;BME280;33517;49.866;8.320;2023-02-16T01:04:50;101617.09;;;3.55;96.56
12868;BME280;33517;49.866;8.320;2023-02-16T01:07:43;101617.84;;;3.57;96.51
12868;BME280;33517;49.866;8.320;2023-02-16T01:11:07;101619.59;;;3.56;96.17
12868;BME280;33517;49.866;8.320;2023-02-16T01:13:59;101620.81;;;3.51;96.40
12868;BME280;33517;49.866;8.320;2023-02-16T01:16:51;101614.22;;;3.45;96.61
12868;BME280;33517;49.866;8.320;2023-02-16T01:19:43;101610.75;;;3.45;97.18
12868;BME280;33517;49.866;8.320;2023-02-16T01:22:35;101597.59;;;3.48;96.80
12868;BME280;33517;49.866;8.320;2023-02-16T01:25:28;101600.75;;;3.53;97.27
12868;BME280;33517;49.866;8.320;2023-02-16T01:28:22;101604.00;;;3.56;97.28
12868;BME280;33517;49.866;8.320;2023-02-16T01:31:14;101616.00;;;3.59;97.20
12868;BME280;33517;49.866;8.320;2023-02-16T01:34:06;101605.69;;;3.57;97.16
12868;BME280;33517;49.866;8.320;2023-02-16T01:36:58;101595.09;;;3.60;97.71
12868;BME280;33517;49.866;8.320;2023-02-16T01:39:50;101590.34;;;3.67;97.48
12868;BME280;33517;49.866;8.320;2023-02-16T01:42:48;101589.91;;;3.74;97.45
12868;BME280;33517;49.866;8.320;2023-02-16T01:45:45;101590.16;;;3.70;97.44
12868;BME280;33517;49.866;8.320;2023-02-16T01:48:37;101586.97;;;3.37;97.84
12868;BME280;33517;49.866;8.320;2023-02-16T01:51:33;101585.09;;;3.39;97.71
12868;BME280;33517;49.866;8.320;2023-02-16T01:54:34;101590.75;;;3.31;97.52
12868;BME280;33517;49.866;8.320;2023-02-16T01:57:34;101595.25;;;3.43;97.50
12868;BME280;33517;49.866;8.320;2023-02-16T02:01:14;101586.06;;;3.52;97.22
12868;BME280;33517;49.866;8.320;2023-02-16T02:03:43;101586.72;;;3.55;97.22
12868;BME280;33517;49.866;8.320;2023-02-16T02:06:52;101578.47;;;3.63;97.51
12868;BME280;33517;49.866;8.320;2023-02-16T02:09:50;101583.19;;;3.70;97.46
12868;BME280;33517;49.866;8.320;2023-02-16T02:12:49;101584.78;;;3.73;97.09
12868;BME280;33517;49.866;8.320;2023-02-16T02:15:44;101584.94;;;3.70;96.70
12868;BME280;33517;49.866;8.320;2023-02-16T02:18:37;101570.09;;;3.72;97.02
12868;BME280;33517;49.866;8.320;2023-02-16T02:21:48;101562.81;;;3.77;97.13
12868;BME280;33517;49.866;8.320;2023-02-16T02:28:25;101567.97;;;3.79;97.30
12868;BME280;33517;49.866;8.320;2023-02-16T02:31:28;101568.78;;;3.79;97.13
12868;BME280;33517;49.866;8.320;2023-02-16T02:34:33;101568.44;;;3.71;96.31
12868;BME280;33517;49.866;8.320;2023-02-16T02:37:39;101568.78;;;3.65;95.99
12868;BME280;33517;49.866;8.320;2023-02-16T02:40:40;101567.41;;;3.59;96.33
12868;BME280;33517;49.866;8.320;2023-02-16T02:43:40;101557.06;;;3.58;96.50
12868;BME280;33517;49.866;8.320;2023-02-16T02:46:34;101553.00;;;3.54;96.61
12868;BME280;33517;49.866;8.320;2023-02-16T02:49:27;101557.69;;;3.33;96.16
12868;BME280;33517;49.866;8.320;2023-02-16T02:52:19;101559.66;;;3.30;97.17
12868;BME280;33517;49.866;8.320;2023-02-16T02:55:12;101559.53;;;3.17;97.03
12868;BME280;33517;49.866;8.320;2023-02-16T02:58:23;101562.84;;;3.05;97.65
12868;BME280;33517;49.866;8.320;2023-02-16T03:01:37;101561.19;;;3.04;98.37
12868;BME280;33517;49.866;8.320;2023-02-16T03:04:31;101568.97;;;2.74;98.67
12868;BME280;33517;49.866;8.320;2023-02-16T03:07:24;101563.03;;;2.72;99.58
12868;BME280;33517;49.866;8.320;2023-02-16T03:10:36;101558.19;;;2.51;100.00
12868;BME280;33517;49.866;8.320;2023-02-16T03:13:49;101550.13;;;2.55;100.00
12868;BME280;33517;49.866;8.320;2023-02-16T03:16:44;101559.13;;;2.50;100.00
12868;BME280;33517;49.866;8.320;2023-02-16T03:19:39;101563.31;;;2.37;100.00
12868;BME280;33517;49.866;8.320;2023-02-16T03:22:49;101573.72;;;2.21;100.00
12868;BME280;33517;49.866;8.320;2023-02-16T03:25:59;101573.84;;;2.18;100.00
12868;BME280;33517;49.866;8.320;2023-02-16T03:29:08;101566.91;;;2.19;100.00
12868;BME280;33517;49.866;8.320;2023-02-16T03:32:09;101575.06;;;1.97;100.00
12868;BME280;33517;49.866;8.320;2023-02-16T03:35:01;101575.72;;;2.01;100.00
12868;BME280;33517;49.866;8.320;2023-02-16T03:37:53;101577.13;;;2.06;100.00
12868;BME280;33517;49.866;8.320;2023-02-16T03:40:46;101578.88;;;2.06;100.00
12868;BME280;33517;49.866;8.320;2023-02-16T03:43:39;101579.28;;;1.82;100.00
12868;BME280;33517;49.866;8.320;2023-02-16T03:46:31;101567.06;;;1.84;100.00
12868;BME280;33517;49.866;8.320;2023-02-16T03:49:25;101566.06;;;1.87;100.00
12868;BME280;33517;49.866;8.320;2023-02-16T03:52:17;101576.09;;;1.77;100.00
12868;BME280;33517;49.866;8.320;2023-02-16T03:55:09;101569.13;;;1.62;100.00
12868;BME280;33517;49.866;8.320;2023-02-16T03:58:01;101569.53;;;1.70;100.00
12868;BME280;33517;49.866;8.320;2023-02-16T04:00:53;101562.50;;;1.72;100.00
12868;BME280;33517;49.866;8.320;2023-02-16T04:03:45;101559.03;;;1.89;100.00
12868;BME280;33517;49.866;8.320;2023-02-16T04:06:38;101563.72;;;1.82;100.00
12868;BME280;33517;49.866;8.320;2023-02-16T04:09:30;101566.88;;;1.72;100.00
12868;BME280;33517;49.866;8.320;2023-02-16T04:12:22;101571.78;;;1.61;100.00
12868;BME280;33517;49.866;8.320;2023-02-16T04:15:29;101569.47;;;1.39;100.00
12868;BME280;33517;49.866;8.320;2023-02-16T04:18:21;101574.53;;;1.58;100.00
12868;BME280;33517;49.866;8.320;2023-02-16T04:21:13;101571.69;;;1.95;100.00
12868;BME280;33517;49.866;8.320;2023-02-16T04:24:06;101574.53;;;2.06;100.00
12868;BME280;33517;49.866;8.320;2023-02-16T04:26:58;101583.44;;;2.18;100.00
12868;BME280;33517;49.866;8.320;2023-02-16T04:29:50;101576.88;;;2.11;100.00
12868;BME280;33517;49.866;8.320;2023-02-16T04:32:42;101577.63;;;1.81;100.00
12868;BME280;33517;49.866;8.320;2023-02-16T04:35:34;101573.59;;;1.43;100.00
12868;BME280;33517;49.866;8.320;2023-02-16T04:38:26;101577.44;;;1.52;100.00
12868;BME280;33517;49.866;8.320;2023-02-16T04:41:19;101568.91;;;1.50;100.00
12868;BME280;33517;49.866;8.320;2023-02-16T04:44:11;101581.41;;;1.42;100.00
12868;BME280;33517;49.866;8.320;2023-02-16T04:47:03;101565.94;;;1.40;100.00
12868;BME280;33517;49.866;8.320;2023-02-16T04:49:55;101568.25;;;1.29;100.00
12868;BME280;33517;49.866;8.320;2023-02-16T04:52:47;101572.84;;;1.24;100.00
12868;BME280;33517;49.866;8.320;2023-02-16T04:55:38;101558.34;;;1.20;100.00
12868;BME280;33517;49.866;8.320;2023-02-16T04:58:32;101562.38;;;1.43;100.00
12868;BME280;33517;49.866;8.320;2023-02-16T05:01:25;101561.97;;;1.50;100.00
12868;BME280;33517;49.866;8.320;2023-02-16T05:04:17;101569.84;;;1.81;100.00
12868;BME280;33517;49.866;8.320;2023-02-16T05:07:09;101569.50;;;2.03;100.00
12868;BME280;33517;49.866;8.320;2023-02-16T05:10:01;101570.16;;;1.75;100.00
12868;BME280;33517;49.866;8.320;2023-02-16T05:12:53;101571.31;;;1.20;100.00
12868;BME280;33517;49.866;8.320;2023-02-16T05:16:04;101589.22;;;0.90;100.00
12868;BME280;33517;49.866;8.320;2023-02-16T05:18:56;101578.00;;;0.90;100.00
12868;BME280;33517;49.866;8.320;2023-02-16T05:21:48;101577.19;;;0.89;100.00
12868;BME280;33517;49.866;8.320;2023-02-16T05:24:40;101583.88;;;1.28;100.00
12868;BME280;33517;49.866;8.320;2023-02-16T05:27:32;101586.22;;;1.49;100.00
12868;BME280;33517;49.866;8.320;2023-02-16T05:30:25;101584.06;;;1.57;100.00
12868;BME280;33517;49.866;8.320;2023-02-16T05:33:18;101578.69;;;1.45;100.00
12868;BME280;33517;49.866;8.320;2023-02-16T05:36:10;101585.91;;;1.55;100.00
12868;BME280;33517;49.866;8.320;2023-02-16T05:39:02;101593.22;;;1.64;100.00
12868;BME280;33517;49.866;8.320;2023-02-16T05:41:54;101591.00;;;1.74;100.00
12868;BME280;33517;49.866;8.320;2023-02-16T05:44:46;101592.63;;;1.42;100.00
12868;BME280;33517;49.866;8.320;2023-02-16T05:47:38;101600.34;;;1.10;100.00
12868;BME280;33517;49.866;8.320;2023-02-16T05:50:31;101592.66;;;1.25;100.00
12868;BME280;33517;49.866;8.320;2023-02-16T05:53:23;101583.66;;;1.15;100.00
12868;BME280;33517;49.866;8.320;2023-02-16T05:56:16;101593.72;;;0.87;100.00
12868;BME280;33517;49.866;8.320;2023-02-16T05:59:07;101594.09;;;0.79;100.00
12868;BME280;33517;49.866;8.320;2023-02-16T06:01:59;101593.72;;;0.51;100.00
12868;BME280;33517;49.866;8.320;2023-02-16T06:04:51;101606.91;;;0.64;100.00
12868;BME280;33517;49.866;8.320;2023-02-16T06:07:44;101599.34;;;0.78;100.00
12868;BME280;33517;49.866;8.320;2023-02-16T06:10:36;101604.56;;;1.12;100.00
12868;BME280;33517;49.866;8.320;2023-02-16T06:13:28;101609.06;;;1.26;100.00
12868;BME280;33517;49.866;8.320;2023-02-16T06:16:20;101621.47;;;1.36;100.00
12868;BME280;33517;49.866;8.320;2023-02-16T06:19:12;101627.19;;;1.43;100.00
12868;BME280;33517;49.866;8.320;2023-02-16T06:22:04;101633.16;;;1.45;100.00
12868;BME280;33517;49.866;8.320;2023-02-16T06:24:57;101624.22;;;1.50;100.00
12868;BME280;33517;49.866;8.320;2023-02-16T06:27:49;101630.66;;;1.59;99.83
12868;BME280;33517;49.866;8.320;2023-02-16T06:30:42;101639.06;;;1.64;99.98
12868;BME280;33517;49.866;8.320;2023-02-16T06:33:35;101645.72;;;1.52;99.92
12868;BME280;33517;49.866;8.320;2023-02-16T06:36:27;101635.81;;;1.26;99.77
12868;BME280;33517;49.866;8.320;2023-02-16T06:39:19;101637.25;;;0.98;100.00
12868;BME280;33517;49.866;8.320;2023-02-16T06:42:12;101636.53;;;0.58;100.00
12868;BME280;33517;49.866;8.320;2023-02-16T06:45:04;101633.63;;;0.47;100.00
12868;BME280;33517;49.866;8.320;2023-02-16T06:47:56;101633.28;;;0.36;100.00
12868;BME280;33517;49.866;8.320;2023-02-16T06:50:48;101639.72;;;0.28;100.00
12868;BME280;33517;49.866;8.320;2023-02-16T06:53:40;101636.13;;;0.49;100.00
12868;BME280;33517;49.866;8.320;2023-02-16T06:56:32;101640.03;;;0.76;100.00
12868;BME280;33517;49.866;8.320;2023-02-16T06:59:25;101641.88;;;0.91;100.00
12868;BME280;33517;49.866;8.320;2023-02-16T07:02:17;101633.34;;;1.06;100.00
12868;BME280;33517;49.866;8.320;2023-02-16T07:05:09;101631.41;;;1.28;100.00
12868;BME280;33517;49.866;8.320;2023-02-16T07:08:01;101625.19;;;1.48;100.00
12868;BME280;33517;49.866;8.320;2023-02-16T07:10:53;101626.97;;;1.47;100.00
12868;BME280;33517;49.866;8.320;2023-02-16T07:13:45;101625.88;;;1.51;100.00
12868;BME280;33517;49.866;8.320;2023-02-16T07:16:39;101633.59;;;1.53;100.00
12868;BME280;33517;49.866;8.320;2023-02-16T07:19:30;101624.97;;;1.52;100.00
12868;BME280;33517;49.866;8.320;2023-02-16T07:22:23;101627.03;;;1.29;100.00
12868;BME280;33517;49.866;8.320;2023-02-16T07:25:15;101633.72;;;0.99;100.00
12868;BME280;33517;49.866;8.320;2023-02-16T07:28:07;101627.69;;;0.98;100.00
12868;BME280;33517;49.866;8.320;2023-02-16T07:31:05;101638.16;;;0.97;100.00
12868;BME280;33517;49.866;8.320;2023-02-16T07:33:58;101637.25;;;0.98;100.00
12868;BME280;33517;49.866;8.320;2023-02-16T07:36:50;101649.84;;;1.22;100.00
12868;BME280;33517;49.866;8.320;2023-02-16T07:39:41;101653.88;;;1.28;100.00
12868;BME280;33517;49.866;8.320;2023-02-16T07:42:33;101649.75;;;1.24;100.00
12868;BME280;33517;49.866;8.320;2023-02-16T07:45:25;101657.50;;;0.89;100.00
12868;BME280;33517;49.866;8.320;2023-02-16T07:48:17;101657.03;;;0.81;100.00
12868;BME280;33517;49.866;8.320;2023-02-16T07:51:10;101652.44;;;0.51;100.00
12868;BME280;33517;49.866;8.320;2023-02-16T07:54:02;101659.59;;;0.46;100.00
12868;BME280;33517;49.866;8.320;2023-02-16T07:56:54;101654.19;;;0.69;100.00
12868;BME280;33517;49.866;8.320;2023-02-16T07:59:46;101653.50;;;1.18;100.00
12868;BME280;33517;49.866;8.320;2023-02-16T08:02:41;101661.88;;;1.40;100.00
12868;BME280;33517;49.866;8.320;2023-02-16T08:05:33;101665.78;;;1.49;100.00
12868;BME280;33517;49.866;8.320;2023-02-16T08:08:26;101649.16;;;1.19;100.00
12868;BME280;33517;49.866;8.320;2023-02-16T08:11:20;101648.69;;;1.28;100.00
12868;BME280;33517;49.866;8.320;2023-02-16T08:14:13;101653.94;;;1.09;100.00
12868;BME280;33517;49.866;8.320;2023-02-16T08:17:06;101646.97;;;1.28;100.00
12868;BME280;33517;49.866;8.320;2023-02-16T08:19:58;101649.97;;;1.19;100.00
12868;BME280;33517;49.866;8.320;2023-02-16T08:22:52;101647.16;;;1.41;100.00
12868;BME280;33517;49.866;8.320;2023-02-16T08:25:45;101653.22;;;1.41;100.00
12868;BME280;33517;49.866;8.320;2023-02-16T08:28:37;101655.31;;;1.67;100.00
12868;BME280;33517;49.866;8.320;2023-02-16T08:31:36;101654.44;;;1.84;100.00
12868;BME280;33517;49.866;8.320;2023-02-16T08:34:29;101658.38;;;2.08;100.00
12868;BME280;33517;49.866;8.320;2023-02-16T08:37:21;101657.78;;;2.19;99.18
12868;BME280;33517;49.866;8.320;2023-02-16T08:40:14;101645.19;;;1.96;98.23
12868;BME280;33517;49.866;8.320;2023-02-16T08:43:08;101656.88;;;2.20;98.45
12868;BME280;33517;49.866;8.320;2023-02-16T08:46:00;101655.56;;;2.44;98.11
12868;BME280;33517;49.866;8.320;2023-02-16T08:48:53;101655.81;;;2.55;97.56
12868;BME280;33517;49.866;8.320;2023-02-16T08:51:48;101656.09;;;2.50;96.52
12868;BME280;33517;49.866;8.320;2023-02-16T08:54:40;101659.59;;;2.65;97.83
12868;BME280;33517;49.866;8.320;2023-02-16T08:57:32;101663.78;;;2.67;96.91
12868;BME280;33517;49.866;8.320;2023-02-16T09:00:25;101659.25;;;2.40;96.48
12868;BME280;33517;49.866;8.320;2023-02-16T09:03:27;101669.81;;;2.37;96.99
12868;BME280;33517;49.866;8.320;2023-02-16T09:06:22;101667.22;;;2.52;96.68
12868;BME280;33517;49.866;8.320;2023-02-16T09:09:14;101669.56;;;2.57;95.77
12868;BME280;33517;49.866;8.320;2023-02-16T09:12:06;101681.22;;;2.50;95.77
12868;BME280;33517;49.866;8.320;2023-02-16T09:14:58;101679.81;;;2.60;95.09
12868;BME280;33517;49.866;8.320;2023-02-16T09:17:51;101679.13;;;2.41;95.09
12868;BME280;33517;49.866;8.320;2023-02-16T09:20:43;101675.28;;;2.63;96.11
12868;BME280;33517;49.866;8.320;2023-02-16T09:23:35;101664.88;;;2.63;95.50
12868;BME280;33517;49.866;8.320;2023-02-16T09:26:30;101662.34;;;2.77;95.34
12868;BME280;33517;49.866;8.320;2023-02-16T09:29:22;101667.47;;;2.63;94.59
12868;BME280;33517;49.866;8.320;2023-02-16T09:32:14;101659.81;;;2.92;95.12
12868;BME280;33517;49.866;8.320;2023-02-16T09:35:08;101657.84;;;2.81;93.24
12868;BME280;33517;49.866;8.320;2023-02-16T09:38:00;101657.22;;;2.60;93.84
12868;BME280;33517;49.866;8.320;2023-02-16T09:40:53;101666.09;;;3.03;94.00
12868;BME280;33517;49.866;8.320;2023-02-16T09:43:50;101672.22;;;3.02;93.90
12868;BME280;33517;49.866;8.320;2023-02-16T09:46:43;101664.19;;;3.50;93.65
12868;BME280;33517;49.866;8.320;2023-02-16T09:49:39;101656.19;;;3.69;93.02
12868;BME280;33517;49.866;8.320;2023-02-16T09:52:36;101651.81;;;3.84;91.92
12868;BME280;33517;49.866;8.320;2023-02-16T09:55:33;101656.72;;;4.02;92.06
12868;BME280;33517;49.866;8.320;2023-02-16T09:58:35;101657.03;;;4.26;91.49
12868;BME280;33517;49.866;8.320;2023-02-16T10:01:34;101650.75;;;4.42;90.76
12868;BME280;33517;49.866;8.320;2023-02-16T10:04:32;101662.69;;;4.32;90.06
12868;BME280;33517;49.866;8.320;2023-02-16T10:07:33;101654.38;;;4.54;89.87
12868;BME280;33517;49.866;8.320;2023-02-16T10:10:43;101657.47;;;4.73;88.65
12868;BME280;33517;49.866;8.320;2023-02-16T10:13:41;101660.06;;;4.87;88.00
12868;BME280;33517;49.866;8.320;2023-02-16T10:16:40;101660.72;;;4.77;87.27
12868;BME280;33517;49.866;8.320;2023-02-16T10:19:36;101656.72;;;4.02;87.09
12868;BME280;33517;49.866;8.320;2023-02-16T10:22:32;101657.13;;;4.24;88.91
12868;BME280;33517;49.866;8.320;2023-02-16T10:25:29;101652.28;;;4.18;88.07
12868;BME280;33517;49.866;8.320;2023-02-16T10:28:31;101646.06;;;4.21;89.05
12868;BME280;33517;49.866;8.320;2023-02-16T10:31:32;101649.56;;;4.20;88.40
12868;BME280;33517;49.866;8.320;2023-02-16T10:34:38;101648.56;;;3.94;89.20
12868;BME280;33517;49.866;8.320;2023-02-16T10:37:42;101637.97;;;4.11;89.45
12868;BME280;33517;49.866;8.320;2023-02-16T10:40:47;101632.34;;;4.31;89.06
12868;BME280;33517;49.866;8.320;2023-02-16T10:43:47;101630.91;;;4.54;89.03
12868;BME280;33517;49.866;8.320;2023-02-16T10:46:44;101626.78;;;4.64;88.39
12868;BME280;33517;49.866;8.320;2023-02-16T10:49:38;101629.38;;;4.78;88.45
12868;BME280;33517;49.866;8.320;2023-02-16T10:52:33;101636.72;;;4.98;88.38
12868;BME280;33517;49.866;8.320;2023-02-16T10:55:26;101624.56;;;5.11;88.25
12868;BME280;33517;49.866;8.320;2023-02-16T10:58:23;101619.50;;;5.22;87.75
12868;BME280;33517;49.866;8.320;2023-02-16T11:01:19;101614.72;;;5.41;87.81
12868;BME280;33517;49.866;8.320;2023-02-16T11:04:30;101606.66;;;5.44;87.20
12868;BME280;33517;49.866;8.320;2023-02-16T11:07:23;101598.03;;;5.56;87.21
12868;BME280;33517;49.866;8.320;2023-02-16T11:10:19;101595.19;;;5.59;85.91
12868;BME280;33517;49.866;8.320;2023-02-16T11:13:27;101593.81;;;5.67;85.57
12868;BME280;33517;49.866;8.320;2023-02-16T11:16:22;101593.72;;;5.81;86.19
12868;BME280;33517;49.866;8.320;2023-02-16T11:19:19;101592.47;;;5.74;85.55
12868;BME280;33517;49.866;8.320;2023-02-16T11:22:25;101584.34;;;5.66;85.42
12868;BME280;33517;49.866;8.320;2023-02-16T11:25:23;101594.88;;;5.64;85.67
12868;BME280;33517;49.866;8.320;2023-02-16T11:28:24;101591.22;;;5.54;86.05
12868;BME280;33517;49.866;8.320;2023-02-16T11:31:26;101582.53;;;5.53;86.43
12868;BME280;33517;49.866;8.320;2023-02-16T11:34:28;101585.88;;;5.55;86.49
12868;BME280;33517;49.866;8.320;2023-02-16T11:37:24;101583.09;;;5.58;86.06
12868;BME280;33517;49.866;8.320;2023-02-16T11:40:21;101576.28;;;5.56;85.97
12868;BME280;33517;49.866;8.320;2023-02-16T11:43:16;101577.84;;;5.71;86.60
12868;BME280;33517;49.866;8.320;2023-02-16T11:46:14;101577.41;;;5.64;86.08
12868;BME280;33517;49.866;8.320;2023-02-16T11:49:20;101583.28;;;5.81;86.56
12868;BME280;33517;49.866;8.320;2023-02-16T11:52:28;101574.75;;;5.91;85.88
12868;BME280;33517;49.866;8.320;2023-02-16T11:55:25;101569.28;;;5.82;85.89
12868;BME280;33517;49.866;8.320;2023-02-16T11:58:18;101567.72;;;5.92;85.68
12868;BME280;33517;49.866;8.320;2023-02-16T12:01:20;101563.44;;;5.91;85.53
12868;BME280;33517;49.866;8.320;2023-02-16T12:04:23;101565.53;;;5.98;87.17
12868;BME280;33517;49.866;8.320;2023-02-16T12:07:27;101557.34;;;6.15;86.81
12868;BME280;33517;49.866;8.320;2023-02-16T12:10:27;101559.69;;;6.54;85.74
12868;BME280;33517;49.866;8.320;2023-02-16T12:13:27;101554.63;;;6.64;84.83
12868;BME280;33517;49.866;8.320;2023-02-16T12:16:29;101551.69;;;6.45;84.44
12868;BME280;33517;49.866;8.320;2023-02-16T12:19:32;101541.94;;;6.47;85.56
12868;BME280;33517;49.866;8.320;2023-02-16T12:22:33;101545.94;;;6.40;85.36
12868;BME280;33517;49.866;8.320;2023-02-16T12:25:32;101554.75;;;6.39;84.64
12868;BME280;33517;49.866;8.320;2023-02-16T12:28:30;101542.78;;;6.47;85.33
12868;BME280;33517;49.866;8.320;2023-02-16T12:31:34;101537.28;;;6.63;85.19
12868;BME280;33517;49.866;8.320;2023-02-16T12:34:36;101543.94;;;6.67;85.74
12868;BME280;33517;49.866;8.320;2023-02-16T12:37:40;101537.28;;;6.63;84.87
12868;BME280;33517;49.866;8.320;2023-02-16T12:40:45;101536.00;;;6.69;85.59
12868;BME280;33517;49.866;8.320;2023-02-16T12:43:42;101528.09;;;6.81;84.30
12868;BME280;33517;49.866;8.320;2023-02-16T12:46:37;101524.78;;;6.90;84.59
12868;BME280;33517;49.866;8.320;2023-02-16T12:49:36;101521.31;;;6.90;83.81
12868;BME280;33517;49.866;8.320;2023-02-16T12:52:38;101516.78;;;6.81;83.56
12868;BME280;33517;49.866;8.320;2023-02-16T12:55:35;101518.81;;;6.88;84.41
12868;BME280;33517;49.866;8.320;2023-02-16T12:58:30;101517.19;;;6.98;83.87
12868;BME280;33517;49.866;8.320;2023-02-16T13:01:26;101516.34;;;6.87;83.14
12868;BME280;33517;49.866;8.320;2023-02-16T13:04:24;101507.75;;;6.85;84.53
12868;BME280;33517;49.866;8.320;2023-02-16T13:07:21;101499.66;;;6.88;84.71
12868;BME280;33517;49.866;8.320;2023-02-16T13:10:22;101495.75;;;6.82;83.56
12868;BME280;33517;49.866;8.320;2023-02-16T13:13:17;101489.22;;;6.88;84.68
12868;BME280;33517;49.866;8.320;2023-02-16T13:16:14;101483.19;;;6.98;83.38
12868;BME280;33517;49.866;8.320;2023-02-16T13:19:10;101479.16;;;7.05;83.85
12868;BME280;33517;49.866;8.320;2023-02-16T13:22:25;101471.31;;;7.16;83.14
12868;BME280;33517;49.866;8.320;2023-02-16T13:25:41;101457.28;;;7.28;82.83
12868;BME280;33517;49.866;8.320;2023-02-16T13:32:12;101454.78;;;7.27;83.03
12868;BME280;33517;49.866;8.320;2023-02-16T13:42:47;101433.00;;;7.26;82.64
12868;BME280;33517;49.866;8.320;2023-02-16T13:45:43;101431.56;;;7.22;82.77
12868;BME280;33517;49.866;8.320;2023-02-16T13:48:38;101434.78;;;7.26;83.89
12868;BME280;33517;49.866;8.320;2023-02-16T13:51:40;101433.72;;;7.39;83.78
12868;BME280;33517;49.866;8.320;2023-02-16T13:54:34;101428.13;;;7.55;83.85
12868;BME280;33517;49.866;8.320;2023-02-16T13:57:56;101425.97;;;7.71;83.43
12868;BME280;33517;49.866;8.320;2023-02-16T14:00:49;101429.50;;;7.81;83.02
12868;BME280;33517;49.866;8.320;2023-02-16T14:03:42;101418.31;;;7.68;82.50
12868;BME280;33517;49.866;8.320;2023-02-16T14:06:36;101414.41;;;7.63;83.18
12868;BME280;33517;49.866;8.320;2023-02-16T14:09:31;101420.38;;;7.54;84.10
12868;BME280;33517;49.866;8.320;2023-02-16T14:12:27;101404.78;;;7.52;83.27
12868;BME280;33517;49.866;8.320;2023-02-16T14:15:25;101410.25;;;7.49;83.10
12868;BME280;33517;49.866;8.320;2023-02-16T14:18:26;101398.94;;;7.48;84.06
12868;BME280;33517;49.866;8.320;2023-02-16T14:21:27;101400.03;;;7.46;83.66
12868;BME280;33517;49.866;8.320;2023-02-16T14:24:31;101407.75;;;7.59;83.49
12868;BME280;33517;49.866;8.320;2023-02-16T14:27:39;101394.53;;;7.71;83.92
12868;BME280;33517;49.866;8.320;2023-02-16T14:30:43;101397.81;;;7.84;83.69
12868;BME280;33517;49.866;8.320;2023-02-16T14:33:39;101396.34;;;7.91;82.77
12868;BME280;33517;49.866;8.320;2023-02-16T14:36:34;101397.22;;;7.81;83.72
12868;BME280;33517;49.866;8.320;2023-02-16T14:39:47;101387.03;;;7.67;84.08
12868;BME280;33517;49.866;8.320;2023-02-16T14:42:47;101381.81;;;7.56;83.22
12868;BME280;33517;49.866;8.320;2023-02-16T14:46:16;101392.28;;;7.56;83.63
12868;BME280;33517;49.866;8.320;2023-02-16T14:52:39;101388.56;;;7.69;85.37
12868;BME280;33517;49.866;8.320;2023-02-16T14:56:15;101395.47;;;7.70;83.85
12868;BME280;33517;49.866;8.320;2023-02-16T14:59:23;101393.81;;;7.58;83.66
12868;BME280;33517;49.866;8.320;2023-02-16T15:02:27;101387.03;;;7.44;84.71
12868;BME280;33517;49.866;8.320;2023-02-16T15:05:21;101404.31;;;7.36;84.72
12868;BME280;33517;49.866;8.320;2023-02-16T15:08:16;101405.84;;;7.27;85.49
12868;BME280;33517;49.866;8.320;2023-02-16T15:11:14;101400.03;;;7.13;85.82
12868;BME280;33517;49.866;8.320;2023-02-16T15:14:09;101400.50;;;7.07;86.00
12868;BME280;33517;49.866;8.320;2023-02-16T15:17:05;101394.34;;;7.08;86.37
12868;BME280;33517;49.866;8.320;2023-02-16T15:20:03;101391.72;;;7.08;86.20
12868;BME280;33517;49.866;8.320;2023-02-16T15:22:59;101392.53;;;7.08;86.09
12868;BME280;33517;49.866;8.320;2023-02-16T15:25:54;101387.09;;;7.00;86.34
12868;BME280;33517;49.866;8.320;2023-02-16T15:28:53;101383.38;;;6.92;87.01
12868;BME280;33517;49.866;8.320;2023-02-16T15:31:47;101389.66;;;6.89;88.01
12868;BME280;33517;49.866;8.320;2023-02-16T15:34:39;101377.69;;;6.87;87.52
12868;BME280;33517;49.866;8.320;2023-02-16T15:37:31;101377.44;;;6.90;87.86
12868;BME280;33517;49.866;8.320;2023-02-16T15:40:24;101372.56;;;6.96;87.20
12868;BME280;33517;49.866;8.320;2023-02-16T15:43:24;101384.09;;;7.05;87.93
12868;BME280;33517;49.866;8.320;2023-02-16T15:46:23;101390.28;;;7.04;88.18
12868;BME280;33517;49.866;8.320;2023-02-16T15:49:24;101386.59;;;7.06;88.04